PN56 weather

Public forecast

Using degrees Fahrenheit for public forecast. Weather courtesy of forecast.io.

Closest aviation weather report (METAR) to Miller Airport

Closest report is Clearfield Lawrence Airport, 17.7 nm (32.9 km) ENE. Retrieved 2020/08/13 16:54 UTC (15 minutes ago):

KFIG 131654Z AUTO VRB05KT 10SM FEW110 30/16 A3014 RMK AO2 SLP196 T03000161

Closest aviation forecast (TAF) to Miller Airport

Closest forecast is DuBois Regional Airport, 19.0 nm (35.2 km) NNW. Retrieved 2020/08/13 12:24 UTC (5 hours ago):

TAF KDUJ 131120Z 1312/1412 06004KT P6SM BKN060 FM131800 08005KT P6SM SCT090 FM140600 06003KT P6SM BKN100